sensor_id;sensor_type;location;lat;lon;timestamp;pressure;altitude;pressure_sealevel;temperature;humidity
55317;BME280;41178;48.956;8.130;2023-11-19T00:01:33;99800.84;;;6.65;68.76
55317;BME280;41178;48.956;8.130;2023-11-19T00:06:35;99740.97;;;6.95;68.71
55317;BME280;41178;48.956;8.130;2023-11-19T00:11:37;99886.91;;;5.83;71.11
55317;BME280;41178;48.956;8.130;2023-11-19T00:16:39;99799.66;;;6.59;69.80
55317;BME280;41178;48.956;8.130;2023-11-19T00:21:41;99747.81;;;6.29;72.17
55317;BME280;41178;48.956;8.130;2023-11-19T00:26:43;99809.53;;;6.22;71.45
55317;BME280;41178;48.956;8.130;2023-11-19T00:31:44;99831.81;;;6.03;71.65
55317;BME280;41178;48.956;8.130;2023-11-19T00:36:47;99823.91;;;6.30;71.20
55317;BME280;41178;48.956;8.130;2023-11-19T00:41:48;99804.97;;;6.06;72.75
55317;BME280;41178;48.956;8.130;2023-11-19T00:46:50;99723.75;;;6.73;71.16
55317;BME280;41178;48.956;8.130;2023-11-19T00:51:52;99638.03;;;8.02;67.55
55317;BME280;41178;48.956;8.130;2023-11-19T00:56:54;99711.59;;;7.13;70.35
55317;BME280;41178;48.956;8.130;2023-11-19T01:01:56;99639.41;;;7.65;69.49
55317;BME280;41178;48.956;8.130;2023-11-19T01:06:58;99818.13;;;6.95;69.31
55317;BME280;41178;48.956;8.130;2023-11-19T01:12:01;99614.72;;;7.88;69.51
55317;BME280;41178;48.956;8.130;2023-11-19T01:17:03;99689.16;;;7.32;70.99
55317;BME280;41178;48.956;8.130;2023-11-19T01:22:06;99870.06;;;6.55;70.60
55317;BME280;41178;48.956;8.130;2023-11-19T01:27:08;99759.13;;;6.99;70.87
55317;BME280;41178;48.956;8.130;2023-11-19T01:32:10;99687.56;;;8.36;67.10
55317;BME280;41178;48.956;8.130;2023-11-19T01:37:11;99761.91;;;7.98;67.70
55317;BME280;41178;48.956;8.130;2023-11-19T01:42:15;99751.88;;;8.33;66.46
55317;BME280;41178;48.956;8.130;2023-11-19T01:47:17;99725.63;;;8.61;66.14
55317;BME280;41178;48.956;8.130;2023-11-19T01:52:20;99740.41;;;8.72;65.32
55317;BME280;41178;48.956;8.130;2023-11-19T01:57:23;99792.41;;;7.96;67.94
55317;BME280;41178;48.956;8.130;2023-11-19T02:02:25;99773.72;;;7.71;68.97
55317;BME280;41178;48.956;8.130;2023-11-19T02:07:28;99842.97;;;7.63;68.33
55317;BME280;41178;48.956;8.130;2023-11-19T02:12:30;99858.78;;;7.72;67.79
55317;BME280;41178;48.956;8.130;2023-11-19T02:17:35;99795.09;;;8.04;67.44
55317;BME280;41178;48.956;8.130;2023-11-19T02:22:39;99681.28;;;9.00;65.82
55317;BME280;41178;48.956;8.130;2023-11-19T02:32:48;99728.50;;;8.52;67.29
55317;BME280;41178;48.956;8.130;2023-11-19T02:37:50;99673.13;;;9.63;64.17
55317;BME280;41178;48.956;8.130;2023-11-19T02:42:52;99822.22;;;8.07;68.00
55317;BME280;41178;48.956;8.130;2023-11-19T02:47:55;99752.34;;;7.13;72.67
55317;BME280;41178;48.956;8.130;2023-11-19T02:52:57;99725.59;;;7.64;71.09
55317;BME280;41178;48.956;8.130;2023-11-19T02:57:59;99710.63;;;7.88;69.88
55317;BME280;41178;48.956;8.130;2023-11-19T03:03:01;99741.09;;;7.69;70.27
55317;BME280;41178;48.956;8.130;2023-11-19T03:08:22;99762.94;;;8.05;69.16
55317;BME280;41178;48.956;8.130;2023-11-19T03:13:24;99737.91;;;8.71;67.17
55317;BME280;41178;48.956;8.130;2023-11-19T03:18:26;99738.44;;;7.69;71.47
55317;BME280;41178;48.956;8.130;2023-11-19T03:23:29;99821.31;;;7.58;70.19
55317;BME280;41178;48.956;8.130;2023-11-19T03:28:32;99710.56;;;8.29;68.64
55317;BME280;41178;48.956;8.130;2023-11-19T03:33:34;99770.38;;;7.36;72.36
55317;BME280;41178;48.956;8.130;2023-11-19T03:38:36;99732.44;;;8.08;69.57
55317;BME280;41178;48.956;8.130;2023-11-19T03:43:38;99661.22;;;8.33;69.98
55317;BME280;41178;48.956;8.130;2023-11-19T03:48:40;99632.06;;;8.71;69.20
55317;BME280;41178;48.956;8.130;2023-11-19T03:53:43;99735.56;;;9.15;66.07
55317;BME280;41178;48.956;8.130;2023-11-19T03:58:45;99727.50;;;9.24;65.93
55317;BME280;41178;48.956;8.130;2023-11-19T04:03:46;99766.41;;;8.87;66.94
55317;BME280;41178;48.956;8.130;2023-11-19T04:08:52;99755.88;;;8.37;69.03
55317;BME280;41178;48.956;8.130;2023-11-19T04:13:53;99801.56;;;8.18;69.29
55317;BME280;41178;48.956;8.130;2023-11-19T04:18:55;99827.38;;;7.25;72.76
55317;BME280;41178;48.956;8.130;2023-11-19T04:23:57;99691.63;;;8.55;70.04
55317;BME280;41178;48.956;8.130;2023-11-19T04:28:59;99721.88;;;8.87;67.59
55317;BME280;41178;48.956;8.130;2023-11-19T04:34:01;99737.84;;;8.47;69.33
55317;BME280;41178;48.956;8.130;2023-11-19T04:39:03;99884.09;;;7.60;70.67
55317;BME280;41178;48.956;8.130;2023-11-19T04:44:15;99795.19;;;8.43;68.94
55317;BME280;41178;48.956;8.130;2023-11-19T04:49:17;99676.28;;;8.97;69.01
55317;BME280;41178;48.956;8.130;2023-11-19T04:54:20;99767.56;;;8.28;69.73
55317;BME280;41178;48.956;8.130;2023-11-19T04:59:21;99709.97;;;9.67;65.61
55317;BME280;41178;48.956;8.130;2023-11-19T05:04:23;99656.28;;;9.39;67.82
55317;BME280;41178;48.956;8.130;2023-11-19T05:09:25;99676.94;;;8.99;68.98
55317;BME280;41178;48.956;8.130;2023-11-19T05:14:26;99680.38;;;10.07;65.01
55317;BME280;41178;48.956;8.130;2023-11-19T05:19:28;99685.59;;;9.70;66.84
55317;BME280;41178;48.956;8.130;2023-11-19T05:24:31;99762.34;;;8.99;68.54
55317;BME280;41178;48.956;8.130;2023-11-19T05:29:33;99650.06;;;10.00;66.34
55317;BME280;41178;48.956;8.130;2023-11-19T05:34:35;99775.47;;;8.69;68.52
55317;BME280;41178;48.956;8.130;2023-11-19T05:39:37;99829.66;;;9.17;66.51
55317;BME280;41178;48.956;8.130;2023-11-19T05:44:39;99673.28;;;10.14;65.49
55317;BME280;41178;48.956;8.130;2023-11-19T05:49:42;99693.88;;;9.75;66.52
55317;BME280;41178;48.956;8.130;2023-11-19T05:54:44;99640.84;;;10.02;66.82
55317;BME280;41178;48.956;8.130;2023-11-19T05:59:45;99751.13;;;9.35;67.71
55317;BME280;41178;48.956;8.130;2023-11-19T06:04:47;99699.47;;;9.89;66.53
55317;BME280;41178;48.956;8.130;2023-11-19T06:09:49;99770.69;;;9.58;66.19
55317;BME280;41178;48.956;8.130;2023-11-19T06:14:51;99696.69;;;9.36;68.75
55317;BME280;41178;48.956;8.130;2023-11-19T06:19:53;99772.91;;;9.24;68.18
55317;BME280;41178;48.956;8.130;2023-11-19T06:24:54;99733.38;;;9.65;67.49
55317;BME280;41178;48.956;8.130;2023-11-19T06:29:56;99789.72;;;10.02;65.48
55317;BME280;41178;48.956;8.130;2023-11-19T06:34:58;99785.72;;;9.51;66.54
55317;BME280;41178;48.956;8.130;2023-11-19T06:39:59;99785.75;;;9.98;65.57
55317;BME280;41178;48.956;8.130;2023-11-19T06:45:02;99802.06;;;9.56;66.56
55317;BME280;41178;48.956;8.130;2023-11-19T06:50:06;99835.75;;;9.03;68.04
55317;BME280;41178;48.956;8.130;2023-11-19T06:55:08;99671.31;;;10.67;64.74
55317;BME280;41178;48.956;8.130;2023-11-19T07:00:11;99773.53;;;10.63;63.79
55317;BME280;41178;48.956;8.130;2023-11-19T07:05:12;99791.16;;;10.27;64.89
55317;BME280;41178;48.956;8.130;2023-11-19T07:10:14;99756.19;;;11.03;63.46
55317;BME280;41178;48.956;8.130;2023-11-19T07:15:17;99819.28;;;10.23;65.19
55317;BME280;41178;48.956;8.130;2023-11-19T07:20:19;99857.25;;;9.10;67.88
55317;BME280;41178;48.956;8.130;2023-11-19T07:25:21;99694.63;;;11.68;62.10
55317;BME280;41178;48.956;8.130;2023-11-19T07:30:23;99723.38;;;11.16;63.62
55317;BME280;41178;48.956;8.130;2023-11-19T07:35:25;99811.13;;;10.55;64.64
55317;BME280;41178;48.956;8.130;2023-11-19T07:40:26;99878.09;;;9.77;66.37
55317;BME280;41178;48.956;8.130;2023-11-19T07:45:29;99804.31;;;10.82;64.10
55317;BME280;41178;48.956;8.130;2023-11-19T07:50:30;99852.66;;;10.12;65.81
55317;BME280;41178;48.956;8.130;2023-11-19T07:55:33;99832.16;;;11.17;62.87
55317;BME280;41178;48.956;8.130;2023-11-19T08:00:35;99873.50;;;10.55;64.50
55317;BME280;41178;48.956;8.130;2023-11-19T08:05:37;99903.16;;;10.45;64.59
55317;BME280;41178;48.956;8.130;2023-11-19T08:10:40;99854.69;;;10.93;64.34
55317;BME280;41178;48.956;8.130;2023-11-19T08:15:42;99744.06;;;11.44;63.70
55317;BME280;41178;48.956;8.130;2023-11-19T08:20:44;99808.22;;;11.31;63.13
55317;BME280;41178;48.956;8.130;2023-11-19T08:25:47;99826.78;;;11.32;63.22
55317;BME280;41178;48.956;8.130;2023-11-19T08:30:48;99845.66;;;10.94;64.14
55317;BME280;41178;48.956;8.130;2023-11-19T08:35:50;99791.56;;;11.93;62.09
55317;BME280;41178;48.956;8.130;2023-11-19T08:40:52;99884.63;;;11.12;63.43
55317;BME280;41178;48.956;8.130;2023-11-19T08:45:54;99766.06;;;12.32;61.89
55317;BME280;41178;48.956;8.130;2023-11-19T08:50:56;99774.22;;;11.96;63.37
55317;BME280;41178;48.956;8.130;2023-11-19T08:55:57;99858.59;;;11.20;64.09
55317;BME280;41178;48.956;8.130;2023-11-19T09:00:59;99797.97;;;11.99;62.84
55317;BME280;41178;48.956;8.130;2023-11-19T09:06:01;99841.81;;;11.85;62.48
55317;BME280;41178;48.956;8.130;2023-11-19T09:11:06;99790.41;;;12.31;61.39
55317;BME280;41178;48.956;8.130;2023-11-19T09:16:11;99837.41;;;11.98;62.35
55317;BME280;41178;48.956;8.130;2023-11-19T09:21:13;99834.34;;;12.02;62.43
55317;BME280;41178;48.956;8.130;2023-11-19T09:26:15;99777.13;;;12.23;63.34
55317;BME280;41178;48.956;8.130;2023-11-19T09:31:17;99822.56;;;11.81;64.45
55317;BME280;41178;48.956;8.130;2023-11-19T09:36:20;99955.88;;;11.57;62.91
55317;BME280;41178;48.956;8.130;2023-11-19T09:41:23;99864.22;;;12.48;61.60
55317;BME280;41178;48.956;8.130;2023-11-19T09:46:26;99886.44;;;12.14;62.83
55317;BME280;41178;48.956;8.130;2023-11-19T09:51:28;99942.22;;;11.52;64.31
55317;BME280;41178;48.956;8.130;2023-11-19T09:56:29;99821.41;;;13.03;61.04
55317;BME280;41178;48.956;8.130;2023-11-19T10:01:32;99842.41;;;12.86;61.79
55317;BME280;41178;48.956;8.130;2023-11-19T10:06:35;99864.44;;;12.47;62.29
55317;BME280;41178;48.956;8.130;2023-11-19T10:11:37;99938.97;;;11.87;63.35
55317;BME280;41178;48.956;8.130;2023-11-19T10:16:39;99879.19;;;12.14;62.84
55317;BME280;41178;48.956;8.130;2023-11-19T10:21:41;99830.50;;;12.39;63.24
55317;BME280;41178;48.956;8.130;2023-11-19T10:26:43;99799.84;;;13.32;61.30
55317;BME280;41178;48.956;8.130;2023-11-19T10:31:55;99764.97;;;13.58;60.77
55317;BME280;41178;48.956;8.130;2023-11-19T10:36:58;99794.78;;;14.24;58.10
55317;BME280;41178;48.956;8.130;2023-11-19T10:42:15;99803.72;;;14.31;58.11
55317;BME280;41178;48.956;8.130;2023-11-19T10:47:22;99855.00;;;13.96;58.35
55317;BME280;41178;48.956;8.130;2023-11-19T10:52:27;99866.81;;;14.08;57.93
55317;BME280;41178;48.956;8.130;2023-11-19T10:57:30;99849.84;;;14.68;56.65
55317;BME280;41178;48.956;8.130;2023-11-19T11:06:08;99840.13;;;10.81;65.75
55317;BME280;41178;48.956;8.130;2023-11-19T11:11:13;99789.22;;;12.12;63.93
55317;BME280;41178;48.956;8.130;2023-11-19T11:16:19;99780.84;;;11.35;64.11
55317;BME280;41178;48.956;8.130;2023-11-19T11:21:23;99777.47;;;11.63;63.67
55317;BME280;41178;48.956;8.130;2023-11-19T11:37:21;99765.81;;;11.99;60.98
55317;BME280;41178;48.956;8.130;2023-11-19T11:42:34;99778.53;;;11.90;60.87
55317;BME280;41178;48.956;8.130;2023-11-19T11:58:00;99762.41;;;12.12;59.84
55317;BME280;41178;48.956;8.130;2023-11-19T12:03:05;99795.13;;;11.79;59.74
55317;BME280;41178;48.956;8.130;2023-11-19T12:08:07;99774.22;;;11.96;59.87
55317;BME280;41178;48.956;8.130;2023-11-19T12:13:11;99799.91;;;11.84;59.58
55317;BME280;41178;48.956;8.130;2023-11-19T12:18:18;99860.50;;;11.12;59.79
55317;BME280;41178;48.956;8.130;2023-11-19T12:23:21;99783.13;;;11.75;59.32
55317;BME280;41178;48.956;8.130;2023-11-19T12:28:23;99723.34;;;12.66;57.77
55317;BME280;41178;48.956;8.130;2023-11-19T12:33:30;99764.81;;;12.28;57.89
55317;BME280;41178;48.956;8.130;2023-11-19T12:38:32;99787.31;;;12.06;58.16
55317;BME280;41178;48.956;8.130;2023-11-19T12:43:34;99761.16;;;12.71;56.49
55317;BME280;41178;48.956;8.130;2023-11-19T12:48:52;99783.63;;;12.07;57.31
55317;BME280;41178;48.956;8.130;2023-11-19T12:53:54;99785.56;;;12.19;57.16
55317;BME280;41178;48.956;8.130;2023-11-19T12:58:56;99710.34;;;12.76;56.19
55317;BME280;41178;48.956;8.130;2023-11-19T13:03:58;99786.69;;;12.04;55.66
55317;BME280;41178;48.956;8.130;2023-11-19T13:08:59;99737.25;;;12.83;55.09
55317;BME280;41178;48.956;8.130;2023-11-19T13:14:03;99747.59;;;11.94;56.96
55317;BME280;41178;48.956;8.130;2023-11-19T13:19:15;99735.47;;;12.27;56.04
55317;BME280;41178;48.956;8.130;2023-11-19T13:24:21;99702.47;;;13.50;54.28
55317;BME280;41178;48.956;8.130;2023-11-19T13:29:23;99755.72;;;12.58;55.54
55317;BME280;41178;48.956;8.130;2023-11-19T13:34:24;99756.38;;;12.38;54.86
55317;BME280;41178;48.956;8.130;2023-11-19T13:39:26;99779.03;;;12.00;55.38
55317;BME280;41178;48.956;8.130;2023-11-19T13:44:28;99708.22;;;12.30;55.84
55317;BME280;41178;48.956;8.130;2023-11-19T13:49:29;99707.69;;;12.41;55.45
55317;BME280;41178;48.956;8.130;2023-11-19T13:54:31;99733.97;;;12.17;55.79
55317;BME280;41178;48.956;8.130;2023-11-19T13:59:33;99765.38;;;11.95;55.67
55317;BME280;41178;48.956;8.130;2023-11-19T14:04:35;99751.03;;;11.81;55.85
55317;BME280;41178;48.956;8.130;2023-11-19T14:09:36;99771.56;;;11.96;54.70
55317;BME280;41178;48.956;8.130;2023-11-19T14:14:38;99696.53;;;12.37;55.18
55317;BME280;41178;48.956;8.130;2023-11-19T14:19:43;99658.06;;;12.72;55.13
55317;BME280;41178;48.956;8.130;2023-11-19T14:24:45;99690.22;;;13.20;53.99
55317;BME280;41178;48.956;8.130;2023-11-19T14:29:47;99688.78;;;13.24;53.35
55317;BME280;41178;48.956;8.130;2023-11-19T14:34:48;99739.09;;;12.89;52.84
55317;BME280;41178;48.956;8.130;2023-11-19T14:39:50;99698.03;;;12.47;54.05
55317;BME280;41178;48.956;8.130;2023-11-19T14:44:52;99709.44;;;12.55;54.27
55317;BME280;41178;48.956;8.130;2023-11-19T14:49:54;99706.28;;;12.93;53.12
55317;BME280;41178;48.956;8.130;2023-11-19T14:54:56;99661.34;;;13.42;52.89
55317;BME280;41178;48.956;8.130;2023-11-19T14:59:58;99729.53;;;12.66;54.28
55317;BME280;41178;48.956;8.130;2023-11-19T15:05:00;99642.72;;;13.41;53.21
55317;BME280;41178;48.956;8.130;2023-11-19T15:10:02;99730.78;;;12.77;53.76
55317;BME280;41178;48.956;8.130;2023-11-19T15:15:04;99668.72;;;13.07;53.32
55317;BME280;41178;48.956;8.130;2023-11-19T15:20:06;99736.38;;;12.41;54.10
55317;BME280;41178;48.956;8.130;2023-11-19T15:25:08;99747.66;;;12.01;54.85
55317;BME280;41178;48.956;8.130;2023-11-19T15:30:12;99763.38;;;11.39;55.01
55317;BME280;41178;48.956;8.130;2023-11-19T15:35:14;99651.19;;;12.14;54.99
55317;BME280;41178;48.956;8.130;2023-11-19T15:40:15;99643.25;;;12.34;54.45
55317;BME280;41178;48.956;8.130;2023-11-19T15:45:17;99671.72;;;12.29;54.57
55317;BME280;41178;48.956;8.130;2023-11-19T15:50:19;99627.13;;;12.76;54.11
55317;BME280;41178;48.956;8.130;2023-11-19T15:55:21;99635.28;;;13.70;51.66
55317;BME280;41178;48.956;8.130;2023-11-19T16:00:23;99713.22;;;12.68;52.92
55317;BME280;41178;48.956;8.130;2023-11-19T16:05:25;99712.94;;;11.65;55.30
55317;BME280;41178;48.956;8.130;2023-11-19T16:10:26;99623.00;;;12.87;53.66
55317;BME280;41178;48.956;8.130;2023-11-19T16:15:28;99622.78;;;12.75;54.24
55317;BME280;41178;48.956;8.130;2023-11-19T16:20:33;99665.13;;;12.38;54.45
55317;BME280;41178;48.956;8.130;2023-11-19T16:25:35;99674.16;;;12.65;53.34
55317;BME280;41178;48.956;8.130;2023-11-19T16:30:39;99685.19;;;12.42;53.87
55317;BME280;41178;48.956;8.130;2023-11-19T16:35:41;99670.13;;;12.41;54.14
55317;BME280;41178;48.956;8.130;2023-11-19T16:40:43;99634.63;;;13.21;52.73
55317;BME280;41178;48.956;8.130;2023-11-19T16:45:45;99631.94;;;13.21;52.88
55317;BME280;41178;48.956;8.130;2023-11-19T16:50:47;99714.69;;;12.77;53.10
55317;BME280;41178;48.956;8.130;2023-11-19T16:55:53;99722.44;;;12.52;54.13
55317;BME280;41178;48.956;8.130;2023-11-19T17:00:55;99734.09;;;11.81;55.02
55317;BME280;41178;48.956;8.130;2023-11-19T17:06:00;99743.81;;;12.10;53.74
55317;BME280;41178;48.956;8.130;2023-11-19T17:11:03;99715.50;;;12.71;53.73
55317;BME280;41178;48.956;8.130;2023-11-19T17:16:07;99685.44;;;13.09;53.36
55317;BME280;41178;48.956;8.130;2023-11-19T17:21:09;99677.75;;;12.79;53.49
55317;BME280;41178;48.956;8.130;2023-11-19T17:26:11;99686.66;;;12.93;53.68
55317;BME280;41178;48.956;8.130;2023-11-19T17:31:12;99709.28;;;11.72;56.29
55317;BME280;41178;48.956;8.130;2023-11-19T17:36:15;99747.97;;;11.85;55.03
55317;BME280;41178;48.956;8.130;2023-11-19T17:41:18;99679.84;;;12.42;55.28
55317;BME280;41178;48.956;8.130;2023-11-19T17:46:19;99772.81;;;11.35;57.61
55317;BME280;41178;48.956;8.130;2023-11-19T17:51:21;99730.53;;;11.31;58.01
55317;BME280;41178;48.956;8.130;2023-11-19T17:56:23;99625.22;;;11.80;57.99
55317;BME280;41178;48.956;8.130;2023-11-19T18:01:24;99713.03;;;11.13;57.75
55317;BME280;41178;48.956;8.130;2023-11-19T18:06:27;99700.22;;;10.42;59.56
55317;BME280;41178;48.956;8.130;2023-11-19T18:11:28;99600.69;;;11.55;57.29
55317;BME280;41178;48.956;8.130;2023-11-19T18:16:30;99661.44;;;11.48;55.82
55317;BME280;41178;48.956;8.130;2023-11-19T18:21:33;99673.25;;;11.32;56.49
55317;BME280;41178;48.956;8.130;2023-11-19T18:26:35;99710.81;;;11.17;55.75
55317;BME280;41178;48.956;8.130;2023-11-19T18:31:39;99646.75;;;11.43;55.85
55317;BME280;41178;48.956;8.130;2023-11-19T18:36:41;99668.13;;;11.37;55.89
55317;BME280;41178;48.956;8.130;2023-11-19T18:41:43;99682.09;;;10.74;56.81
55317;BME280;41178;48.956;8.130;2023-11-19T18:46:44;99630.94;;;11.49;55.80
55317;BME280;41178;48.956;8.130;2023-11-19T18:51:46;99744.03;;;10.86;56.21
55317;BME280;41178;48.956;8.130;2023-11-19T18:56:48;99659.16;;;11.44;55.27
55317;BME280;41178;48.956;8.130;2023-11-19T19:01:50;99732.94;;;10.89;55.38
55317;BME280;41178;48.956;8.130;2023-11-19T19:06:52;99655.81;;;11.64;54.52
55317;BME280;41178;48.956;8.130;2023-11-19T19:11:54;99795.13;;;10.61;55.20
55317;BME280;41178;48.956;8.130;2023-11-19T19:16:55;99752.28;;;11.21;53.95
55317;BME280;41178;48.956;8.130;2023-11-19T19:21:57;99701.38;;;11.42;54.57
55317;BME280;41178;48.956;8.130;2023-11-19T19:26:59;99776.84;;;11.10;53.49
55317;BME280;41178;48.956;8.130;2023-11-19T19:32:01;99746.13;;;11.63;53.25
55317;BME280;41178;48.956;8.130;2023-11-19T19:37:04;99789.09;;;10.82;54.82
55317;BME280;41178;48.956;8.130;2023-11-19T19:42:07;99776.50;;;10.98;53.68
55317;BME280;41178;48.956;8.130;2023-11-19T19:47:11;99782.63;;;11.28;52.99
55317;BME280;41178;48.956;8.130;2023-11-19T19:52:13;99743.44;;;11.63;52.79
55317;BME280;41178;48.956;8.130;2023-11-19T19:57:14;99809.28;;;11.00;53.57
55317;BME280;41178;48.956;8.130;2023-11-19T20:02:16;99813.41;;;11.32;53.29
55317;BME280;41178;48.956;8.130;2023-11-19T20:07:18;99780.16;;;11.63;52.83
55317;BME280;41178;48.956;8.130;2023-11-19T20:12:19;99779.56;;;11.68;52.30
55317;BME280;41178;48.956;8.130;2023-11-19T20:17:21;99799.94;;;11.47;52.97
55317;BME280;41178;48.956;8.130;2023-11-19T20:22:23;99867.09;;;10.94;52.91
55317;BME280;41178;48.956;8.130;2023-11-19T20:27:25;99840.56;;;10.55;54.16
55317;BME280;41178;48.956;8.130;2023-11-19T20:32:27;99843.38;;;10.38;53.95
55317;BME280;41178;48.956;8.130;2023-11-19T20:37:28;99772.91;;;11.27;52.95
55317;BME280;41178;48.956;8.130;2023-11-19T20:42:32;99884.97;;;10.03;54.73
55317;BME280;41178;48.956;8.130;2023-11-19T20:47:39;99787.50;;;10.73;54.39
55317;BME280;41178;48.956;8.130;2023-11-19T20:52:41;99889.09;;;10.05;54.49
55317;BME280;41178;48.956;8.130;2023-11-19T20:57:44;99916.06;;;9.64;55.05
55317;BME280;41178;48.956;8.130;2023-11-19T21:02:47;99863.63;;;9.94;54.30
55317;BME280;41178;48.956;8.130;2023-11-19T21:07:50;99731.78;;;10.77;53.87
55317;BME280;41178;48.956;8.130;2023-11-19T21:12:53;99854.22;;;10.60;53.04
55317;BME280;41178;48.956;8.130;2023-11-19T21:17:55;99702.94;;;10.94;53.70
55317;BME280;41178;48.956;8.130;2023-11-19T21:22:57;99696.31;;;11.76;51.50
55317;BME280;41178;48.956;8.130;2023-11-19T21:27:58;99750.88;;;10.44;54.55
55317;BME280;41178;48.956;8.130;2023-11-19T21:33:00;99740.81;;;10.76;53.42
55317;BME280;41178;48.956;8.130;2023-11-19T21:38:03;99753.72;;;10.42;54.51
55317;BME280;41178;48.956;8.130;2023-11-19T21:43:04;99837.88;;;10.17;53.98
55317;BME280;41178;48.956;8.130;2023-11-19T21:48:06;99835.97;;;10.25;54.04
55317;BME280;41178;48.956;8.130;2023-11-19T21:53:11;99883.72;;;9.59;54.87
55317;BME280;41178;48.956;8.130;2023-11-19T21:58:12;99760.91;;;10.86;53.04
55317;BME280;41178;48.956;8.130;2023-11-19T22:03:14;99800.47;;;9.93;54.86
55317;BME280;41178;48.956;8.130;2023-11-19T22:08:16;99714.13;;;10.52;54.39
55317;BME280;41178;48.956;8.130;2023-11-19T22:13:19;99819.50;;;10.37;53.54
55317;BME280;41178;48.956;8.130;2023-11-19T22:18:20;99818.66;;;10.51;53.49
55317;BME280;41178;48.956;8.130;2023-11-19T22:23:22;99735.72;;;10.51;54.36
55317;BME280;41178;48.956;8.130;2023-11-19T22:28:23;99846.31;;;10.28;53.61
55317;BME280;41178;48.956;8.130;2023-11-19T22:33:25;99731.22;;;10.66;53.90
55317;BME280;41178;48.956;8.130;2023-11-19T22:38:27;99731.03;;;10.53;54.19
55317;BME280;41178;48.956;8.130;2023-11-19T22:43:28;99745.69;;;10.57;54.08
55317;BME280;41178;48.956;8.130;2023-11-19T22:48:30;99748.38;;;10.42;54.09
55317;BME280;41178;48.956;8.130;2023-11-19T22:53:32;99743.13;;;10.79;52.68
55317;BME280;41178;48.956;8.130;2023-11-19T22:58:34;99747.72;;;10.25;54.34
55317;BME280;41178;48.956;8.130;2023-11-19T23:03:36;99725.78;;;10.30;54.10
55317;BME280;41178;48.956;8.130;2023-11-19T23:08:37;99673.00;;;10.54;53.96
55317;BME280;41178;48.956;8.130;2023-11-19T23:13:39;99825.06;;;9.03;55.84
55317;BME280;41178;48.956;8.130;2023-11-19T23:18:41;99839.13;;;8.64;56.50
55317;BME280;41178;48.956;8.130;2023-11-19T23:23:44;99733.78;;;9.31;55.64
55317;BME280;41178;48.956;8.130;2023-11-19T23:28:45;99872.00;;;8.64;55.73
55317;BME280;41178;48.956;8.130;2023-11-19T23:33:49;99697.00;;;10.17;53.86
55317;BME280;41178;48.956;8.130;2023-11-19T23:38:51;99669.53;;;10.23;54.26
55317;BME280;41178;48.956;8.130;2023-11-19T23:43:54;99680.50;;;10.28;53.62
55317;BME280;41178;48.956;8.130;2023-11-19T23:48:56;99790.81;;;9.92;53.71
55317;BME280;41178;48.956;8.130;2023-11-19T23:54:00;99824.88;;;9.67;53.79
55317;BME280;41178;48.956;8.130;2023-11-19T23:59:02;99706.03;;;9.40;55.28
